sensor_id;sensor_type;location;lat;lon;timestamp;P1;durP1;ratioP1;P2;durP2;ratioP2
2784;SDS011;57944;48.722;9.316;2023-03-01T00:01:24;26.10;;;13.63;;
2784;SDS011;57944;48.722;9.316;2023-03-01T00:04:00;24.10;;;12.87;;
2784;SDS011;57944;48.722;9.316;2023-03-01T00:06:30;22.23;;;11.37;;
2784;SDS011;57944;48.722;9.316;2023-03-01T00:09:00;24.77;;;11.90;;
2784;SDS011;57944;48.722;9.316;2023-03-01T00:11:31;24.87;;;13.40;;
2784;SDS011;57944;48.722;9.316;2023-03-01T00:14:03;21.97;;;12.00;;
2784;SDS011;57944;48.722;9.316;2023-03-01T00:16:34;23.53;;;13.03;;
2784;SDS011;57944;48.722;9.316;2023-03-01T00:19:12;20.40;;;11.13;;
2784;SDS011;57944;48.722;9.316;2023-03-01T00:21:44;24.00;;;12.43;;
2784;SDS011;57944;48.722;9.316;2023-03-01T00:24:15;23.57;;;12.43;;
2784;SDS011;57944;48.722;9.316;2023-03-01T00:26:45;23.87;;;13.03;;
2784;SDS011;57944;48.722;9.316;2023-03-01T00:29:16;25.87;;;11.97;;
2784;SDS011;57944;48.722;9.316;2023-03-01T00:31:46;27.40;;;14.83;;
2784;SDS011;57944;48.722;9.316;2023-03-01T00:34:18;22.77;;;12.50;;
2784;SDS011;57944;48.722;9.316;2023-03-01T00:36:48;22.20;;;12.80;;
2784;SDS011;57944;48.722;9.316;2023-03-01T00:39:18;21.50;;;13.07;;
2784;SDS011;57944;48.722;9.316;2023-03-01T00:41:49;26.00;;;12.70;;
2784;SDS011;57944;48.722;9.316;2023-03-01T00:44:19;25.33;;;12.03;;
2784;SDS011;57944;48.722;9.316;2023-03-01T00:46:49;29.23;;;14.30;;
2784;SDS011;57944;48.722;9.316;2023-03-01T00:49:21;28.20;;;13.73;;
2784;SDS011;57944;48.722;9.316;2023-03-01T00:51:55;22.63;;;12.93;;
2784;SDS011;57944;48.722;9.316;2023-03-01T00:54:25;27.90;;;14.50;;
2784;SDS011;57944;48.722;9.316;2023-03-01T00:56:55;28.77;;;13.50;;
2784;SDS011;57944;48.722;9.316;2023-03-01T00:59:25;26.17;;;13.40;;
2784;SDS011;57944;48.722;9.316;2023-03-01T01:01:55;25.90;;;14.40;;
2784;SDS011;57944;48.722;9.316;2023-03-01T01:04:28;26.43;;;12.77;;
2784;SDS011;57944;48.722;9.316;2023-03-01T01:06:58;24.57;;;13.33;;
2784;SDS011;57944;48.722;9.316;2023-03-01T01:09:28;21.57;;;11.63;;
2784;SDS011;57944;48.722;9.316;2023-03-01T01:11:58;27.53;;;15.67;;
2784;SDS011;57944;48.722;9.316;2023-03-01T01:14:28;25.03;;;12.40;;
2784;SDS011;57944;48.722;9.316;2023-03-01T01:16:58;23.77;;;12.60;;
2784;SDS011;57944;48.722;9.316;2023-03-01T01:19:31;25.10;;;12.70;;
2784;SDS011;57944;48.722;9.316;2023-03-01T01:22:02;25.73;;;12.90;;
2784;SDS011;57944;48.722;9.316;2023-03-01T01:24:32;20.50;;;11.93;;
2784;SDS011;57944;48.722;9.316;2023-03-01T01:27:02;31.43;;;16.33;;
2784;SDS011;57944;48.722;9.316;2023-03-01T01:29:33;29.20;;;13.83;;
2784;SDS011;57944;48.722;9.316;2023-03-01T01:32:04;25.43;;;14.23;;
2784;SDS011;57944;48.722;9.316;2023-03-01T01:34:37;29.60;;;13.67;;
2784;SDS011;57944;48.722;9.316;2023-03-01T01:37:07;29.97;;;14.30;;
2784;SDS011;57944;48.722;9.316;2023-03-01T01:39:37;36.63;;;16.80;;
2784;SDS011;57944;48.722;9.316;2023-03-01T01:42:09;27.30;;;14.03;;
2784;SDS011;57944;48.722;9.316;2023-03-01T01:44:45;28.03;;;16.10;;
2784;SDS011;57944;48.722;9.316;2023-03-01T01:47:18;26.60;;;14.60;;
2784;SDS011;57944;48.722;9.316;2023-03-01T01:49:55;25.10;;;14.40;;
2784;SDS011;57944;48.722;9.316;2023-03-01T01:52:27;23.30;;;13.87;;
2784;SDS011;57944;48.722;9.316;2023-03-01T01:55:04;23.97;;;12.37;;
2784;SDS011;57944;48.722;9.316;2023-03-01T01:57:41;22.03;;;12.67;;
2784;SDS011;57944;48.722;9.316;2023-03-01T02:00:18;20.27;;;13.37;;
2784;SDS011;57944;48.722;9.316;2023-03-01T02:02:52;26.67;;;15.23;;
2784;SDS011;57944;48.722;9.316;2023-03-01T02:05:33;22.67;;;13.20;;
2784;SDS011;57944;48.722;9.316;2023-03-01T02:08:21;21.47;;;12.30;;
2784;SDS011;57944;48.722;9.316;2023-03-01T02:10:57;23.93;;;13.13;;
2784;SDS011;57944;48.722;9.316;2023-03-01T02:13:30;24.60;;;13.87;;
2784;SDS011;57944;48.722;9.316;2023-03-01T02:16:03;25.30;;;13.70;;
2784;SDS011;57944;48.722;9.316;2023-03-01T02:18:34;25.63;;;12.70;;
2784;SDS011;57944;48.722;9.316;2023-03-01T02:21:08;23.17;;;12.67;;
2784;SDS011;57944;48.722;9.316;2023-03-01T02:23:56;22.77;;;12.50;;
2784;SDS011;57944;48.722;9.316;2023-03-01T02:26:39;19.83;;;12.53;;
2784;SDS011;57944;48.722;9.316;2023-03-01T02:29:18;27.27;;;13.27;;
2784;SDS011;57944;48.722;9.316;2023-03-01T02:31:49;29.40;;;14.17;;
2784;SDS011;57944;48.722;9.316;2023-03-01T02:34:25;27.63;;;13.40;;
2784;SDS011;57944;48.722;9.316;2023-03-01T02:36:57;26.63;;;14.23;;
2784;SDS011;57944;48.722;9.316;2023-03-01T02:39:33;28.53;;;14.57;;
2784;SDS011;57944;48.722;9.316;2023-03-01T02:42:09;27.03;;;13.67;;
2784;SDS011;57944;48.722;9.316;2023-03-01T02:44:48;23.77;;;13.33;;
2784;SDS011;57944;48.722;9.316;2023-03-01T02:47:20;24.93;;;13.37;;
2784;SDS011;57944;48.722;9.316;2023-03-01T02:49:50;21.23;;;13.10;;
2784;SDS011;57944;48.722;9.316;2023-03-01T02:52:28;21.00;;;13.07;;
2784;SDS011;57944;48.722;9.316;2023-03-01T02:55:15;30.87;;;14.60;;
2784;SDS011;57944;48.722;9.316;2023-03-01T02:57:47;29.37;;;14.90;;
2784;SDS011;57944;48.722;9.316;2023-03-01T03:00:22;25.20;;;14.60;;
2784;SDS011;57944;48.722;9.316;2023-03-01T03:02:57;25.40;;;14.27;;
2784;SDS011;57944;48.722;9.316;2023-03-01T03:05:28;22.53;;;14.57;;
2784;SDS011;57944;48.722;9.316;2023-03-01T03:08:00;21.43;;;12.63;;
2784;SDS011;57944;48.722;9.316;2023-03-01T03:10:36;23.93;;;13.03;;
2784;SDS011;57944;48.722;9.316;2023-03-01T03:13:10;29.37;;;15.27;;
2784;SDS011;57944;48.722;9.316;2023-03-01T03:15:46;24.57;;;12.90;;
2784;SDS011;57944;48.722;9.316;2023-03-01T03:18:16;24.63;;;12.80;;
2784;SDS011;57944;48.722;9.316;2023-03-01T03:20:46;25.80;;;13.50;;
2784;SDS011;57944;48.722;9.316;2023-03-01T03:23:19;30.90;;;15.53;;
2784;SDS011;57944;48.722;9.316;2023-03-01T03:25:50;29.00;;;13.33;;
2784;SDS011;57944;48.722;9.316;2023-03-01T03:28:34;24.97;;;14.30;;
2784;SDS011;57944;48.722;9.316;2023-03-01T03:31:08;26.97;;;15.37;;
2784;SDS011;57944;48.722;9.316;2023-03-01T03:33:38;26.03;;;13.70;;
2784;SDS011;57944;48.722;9.316;2023-03-01T03:36:08;27.93;;;12.87;;
2784;SDS011;57944;48.722;9.316;2023-03-01T03:38:39;24.53;;;15.17;;
2784;SDS011;57944;48.722;9.316;2023-03-01T03:41:09;26.07;;;13.83;;
2784;SDS011;57944;48.722;9.316;2023-03-01T03:43:39;27.67;;;15.40;;
2784;SDS011;57944;48.722;9.316;2023-03-01T03:46:14;26.93;;;14.00;;
2784;SDS011;57944;48.722;9.316;2023-03-01T03:48:44;28.23;;;14.00;;
2784;SDS011;57944;48.722;9.316;2023-03-01T03:51:17;18.60;;;12.20;;
2784;SDS011;57944;48.722;9.316;2023-03-01T03:53:49;25.23;;;14.80;;
2784;SDS011;57944;48.722;9.316;2023-03-01T03:56:19;28.03;;;14.87;;
2784;SDS011;57944;48.722;9.316;2023-03-01T03:58:54;19.87;;;13.03;;
2784;SDS011;57944;48.722;9.316;2023-03-01T04:01:26;27.83;;;14.40;;
2784;SDS011;57944;48.722;9.316;2023-03-01T04:03:56;25.33;;;14.13;;
2784;SDS011;57944;48.722;9.316;2023-03-01T04:06:30;24.30;;;13.80;;
2784;SDS011;57944;48.722;9.316;2023-03-01T04:09:00;23.37;;;14.57;;
2784;SDS011;57944;48.722;9.316;2023-03-01T04:11:31;22.60;;;13.90;;
2784;SDS011;57944;48.722;9.316;2023-03-01T04:14:01;30.13;;;14.77;;
2784;SDS011;57944;48.722;9.316;2023-03-01T04:16:33;25.47;;;13.47;;
2784;SDS011;57944;48.722;9.316;2023-03-01T04:19:03;25.63;;;14.27;;
2784;SDS011;57944;48.722;9.316;2023-03-01T04:21:35;31.73;;;16.57;;
2784;SDS011;57944;48.722;9.316;2023-03-01T04:24:06;26.30;;;14.57;;
2784;SDS011;57944;48.722;9.316;2023-03-01T04:26:36;27.80;;;14.97;;
2784;SDS011;57944;48.722;9.316;2023-03-01T04:29:06;27.93;;;14.37;;
2784;SDS011;57944;48.722;9.316;2023-03-01T04:31:39;25.47;;;14.27;;
2784;SDS011;57944;48.722;9.316;2023-03-01T04:34:09;26.57;;;13.50;;
2784;SDS011;57944;48.722;9.316;2023-03-01T04:36:40;25.73;;;13.97;;
2784;SDS011;57944;48.722;9.316;2023-03-01T04:39:10;23.83;;;13.37;;
2784;SDS011;57944;48.722;9.316;2023-03-01T04:41:41;30.83;;;17.43;;
2784;SDS011;57944;48.722;9.316;2023-03-01T04:44:12;29.13;;;15.70;;
2784;SDS011;57944;48.722;9.316;2023-03-01T04:46:45;30.80;;;15.77;;
2784;SDS011;57944;48.722;9.316;2023-03-01T04:49:17;30.53;;;13.60;;
2784;SDS011;57944;48.722;9.316;2023-03-01T04:51:47;27.97;;;14.50;;
2784;SDS011;57944;48.722;9.316;2023-03-01T04:54:17;27.80;;;13.93;;
2784;SDS011;57944;48.722;9.316;2023-03-01T04:56:47;25.40;;;13.63;;
2784;SDS011;57944;48.722;9.316;2023-03-01T04:59:17;27.93;;;14.40;;
2784;SDS011;57944;48.722;9.316;2023-03-01T05:01:51;26.90;;;14.40;;
2784;SDS011;57944;48.722;9.316;2023-03-01T05:04:24;21.73;;;13.37;;
2784;SDS011;57944;48.722;9.316;2023-03-01T05:06:54;23.30;;;13.20;;
2784;SDS011;57944;48.722;9.316;2023-03-01T05:09:25;30.13;;;13.67;;
2784;SDS011;57944;48.722;9.316;2023-03-01T05:11:55;25.73;;;15.87;;
2784;SDS011;57944;48.722;9.316;2023-03-01T05:14:25;27.50;;;15.40;;
2784;SDS011;57944;48.722;9.316;2023-03-01T05:16:57;24.50;;;15.83;;
2784;SDS011;57944;48.722;9.316;2023-03-01T05:19:30;30.63;;;15.43;;
2784;SDS011;57944;48.722;9.316;2023-03-01T05:22:00;29.80;;;14.57;;
2784;SDS011;57944;48.722;9.316;2023-03-01T05:24:31;25.23;;;14.53;;
2784;SDS011;57944;48.722;9.316;2023-03-01T05:27:04;23.50;;;14.30;;
2784;SDS011;57944;48.722;9.316;2023-03-01T05:29:35;31.43;;;14.60;;
2784;SDS011;57944;48.722;9.316;2023-03-01T05:32:09;24.23;;;14.83;;
2784;SDS011;57944;48.722;9.316;2023-03-01T05:34:41;27.30;;;14.63;;
2784;SDS011;57944;48.722;9.316;2023-03-01T05:37:13;27.83;;;14.30;;
2784;SDS011;57944;48.722;9.316;2023-03-01T05:39:43;27.47;;;15.50;;
2784;SDS011;57944;48.722;9.316;2023-03-01T05:42:16;25.47;;;15.93;;
2784;SDS011;57944;48.722;9.316;2023-03-01T05:44:46;26.57;;;14.40;;
2784;SDS011;57944;48.722;9.316;2023-03-01T05:47:18;29.47;;;15.93;;
2784;SDS011;57944;48.722;9.316;2023-03-01T05:49:48;26.53;;;13.80;;
2784;SDS011;57944;48.722;9.316;2023-03-01T05:52:18;28.37;;;15.77;;
2784;SDS011;57944;48.722;9.316;2023-03-01T05:54:48;27.27;;;15.93;;
2784;SDS011;57944;48.722;9.316;2023-03-01T05:57:18;38.33;;;17.77;;
2784;SDS011;57944;48.722;9.316;2023-03-01T05:59:48;26.97;;;14.90;;
2784;SDS011;57944;48.722;9.316;2023-03-01T06:02:21;34.37;;;16.20;;
2784;SDS011;57944;48.722;9.316;2023-03-01T06:04:51;27.40;;;15.37;;
2784;SDS011;57944;48.722;9.316;2023-03-01T06:07:21;30.07;;;15.30;;
2784;SDS011;57944;48.722;9.316;2023-03-01T06:09:51;33.67;;;15.27;;
2784;SDS011;57944;48.722;9.316;2023-03-01T06:12:21;33.07;;;17.40;;
2784;SDS011;57944;48.722;9.316;2023-03-01T06:14:51;25.57;;;14.40;;
2784;SDS011;57944;48.722;9.316;2023-03-01T06:17:24;28.10;;;15.73;;
2784;SDS011;57944;48.722;9.316;2023-03-01T06:19:54;25.50;;;14.93;;
2784;SDS011;57944;48.722;9.316;2023-03-01T06:22:24;35.23;;;17.50;;
2784;SDS011;57944;48.722;9.316;2023-03-01T06:24:54;25.80;;;14.03;;
2784;SDS011;57944;48.722;9.316;2023-03-01T06:27:24;25.67;;;14.47;;
2784;SDS011;57944;48.722;9.316;2023-03-01T06:29:54;23.90;;;14.47;;
2784;SDS011;57944;48.722;9.316;2023-03-01T06:32:27;28.37;;;15.97;;
2784;SDS011;57944;48.722;9.316;2023-03-01T06:34:58;30.50;;;15.20;;
2784;SDS011;57944;48.722;9.316;2023-03-01T06:37:28;29.67;;;16.23;;
2784;SDS011;57944;48.722;9.316;2023-03-01T06:39:58;24.83;;;14.90;;
2784;SDS011;57944;48.722;9.316;2023-03-01T06:42:31;31.87;;;15.57;;
2784;SDS011;57944;48.722;9.316;2023-03-01T06:45:01;29.03;;;15.40;;
2784;SDS011;57944;48.722;9.316;2023-03-01T06:47:34;26.33;;;15.60;;
2784;SDS011;57944;48.722;9.316;2023-03-01T06:50:07;29.80;;;14.10;;
2784;SDS011;57944;48.722;9.316;2023-03-01T06:52:39;37.50;;;16.30;;
2784;SDS011;57944;48.722;9.316;2023-03-01T06:55:11;25.60;;;15.03;;
2784;SDS011;57944;48.722;9.316;2023-03-01T06:57:42;28.10;;;16.67;;
2784;SDS011;57944;48.722;9.316;2023-03-01T07:00:13;29.97;;;15.60;;
2784;SDS011;57944;48.722;9.316;2023-03-01T07:02:47;28.27;;;14.70;;
2784;SDS011;57944;48.722;9.316;2023-03-01T07:05:17;24.77;;;14.37;;
2784;SDS011;57944;48.722;9.316;2023-03-01T07:07:47;31.33;;;17.40;;
2784;SDS011;57944;48.722;9.316;2023-03-01T07:10:17;29.40;;;15.83;;
2784;SDS011;57944;48.722;9.316;2023-03-01T07:12:47;32.87;;;17.30;;
2784;SDS011;57944;48.722;9.316;2023-03-01T07:15:17;28.70;;;15.30;;
2784;SDS011;57944;48.722;9.316;2023-03-01T07:17:50;23.87;;;14.30;;
2784;SDS011;57944;48.722;9.316;2023-03-01T07:20:20;28.87;;;15.70;;
2784;SDS011;57944;48.722;9.316;2023-03-01T07:22:52;28.93;;;17.50;;
2784;SDS011;57944;48.722;9.316;2023-03-01T07:25:24;30.00;;;16.87;;
2784;SDS011;57944;48.722;9.316;2023-03-01T07:27:54;32.47;;;17.03;;
2784;SDS011;57944;48.722;9.316;2023-03-01T07:30:24;31.37;;;15.90;;
2784;SDS011;57944;48.722;9.316;2023-03-01T07:32:57;29.20;;;15.10;;
2784;SDS011;57944;48.722;9.316;2023-03-01T07:35:28;28.83;;;15.37;;
2784;SDS011;57944;48.722;9.316;2023-03-01T07:37:59;25.37;;;15.53;;
2784;SDS011;57944;48.722;9.316;2023-03-01T07:40:29;25.27;;;14.93;;
2784;SDS011;57944;48.722;9.316;2023-03-01T07:43:00;27.70;;;16.83;;
2784;SDS011;57944;48.722;9.316;2023-03-01T07:45:30;25.70;;;16.33;;
2784;SDS011;57944;48.722;9.316;2023-03-01T07:48:03;27.43;;;17.60;;
2784;SDS011;57944;48.722;9.316;2023-03-01T07:50:33;27.73;;;15.53;;
2784;SDS011;57944;48.722;9.316;2023-03-01T07:53:03;33.83;;;17.50;;
2784;SDS011;57944;48.722;9.316;2023-03-01T07:55:33;23.20;;;15.47;;
2784;SDS011;57944;48.722;9.316;2023-03-01T07:58:03;24.47;;;15.57;;
2784;SDS011;57944;48.722;9.316;2023-03-01T08:00:33;24.97;;;16.03;;
2784;SDS011;57944;48.722;9.316;2023-03-01T08:03:06;27.77;;;17.87;;
2784;SDS011;57944;48.722;9.316;2023-03-01T08:05:36;29.57;;;16.37;;
2784;SDS011;57944;48.722;9.316;2023-03-01T08:08:06;26.93;;;16.40;;
2784;SDS011;57944;48.722;9.316;2023-03-01T08:10:36;29.20;;;16.80;;
2784;SDS011;57944;48.722;9.316;2023-03-01T08:13:06;30.57;;;17.13;;
2784;SDS011;57944;48.722;9.316;2023-03-01T08:15:36;27.67;;;15.73;;
2784;SDS011;57944;48.722;9.316;2023-03-01T08:18:08;28.73;;;17.47;;
2784;SDS011;57944;48.722;9.316;2023-03-01T08:20:38;26.23;;;16.33;;
2784;SDS011;57944;48.722;9.316;2023-03-01T08:23:08;29.77;;;17.17;;
2784;SDS011;57944;48.722;9.316;2023-03-01T08:25:39;30.93;;;17.90;;
2784;SDS011;57944;48.722;9.316;2023-03-01T08:28:09;23.37;;;15.10;;
2784;SDS011;57944;48.722;9.316;2023-03-01T08:30:39;23.47;;;15.27;;
2784;SDS011;57944;48.722;9.316;2023-03-01T08:33:12;28.10;;;18.17;;
2784;SDS011;57944;48.722;9.316;2023-03-01T08:35:42;29.77;;;16.70;;
2784;SDS011;57944;48.722;9.316;2023-03-01T08:38:12;28.67;;;18.03;;
2784;SDS011;57944;48.722;9.316;2023-03-01T08:40:42;27.90;;;17.40;;
2784;SDS011;57944;48.722;9.316;2023-03-01T08:43:12;34.80;;;16.43;;
2784;SDS011;57944;48.722;9.316;2023-03-01T08:45:44;24.33;;;14.77;;
2784;SDS011;57944;48.722;9.316;2023-03-01T08:48:16;28.17;;;15.57;;
2784;SDS011;57944;48.722;9.316;2023-03-01T08:50:46;28.13;;;15.40;;
2784;SDS011;57944;48.722;9.316;2023-03-01T08:53:16;33.67;;;16.37;;
2784;SDS011;57944;48.722;9.316;2023-03-01T08:55:46;29.67;;;15.60;;
2784;SDS011;57944;48.722;9.316;2023-03-01T08:58:16;29.83;;;15.20;;
2784;SDS011;57944;48.722;9.316;2023-03-01T09:00:46;29.03;;;15.30;;
2784;SDS011;57944;48.722;9.316;2023-03-01T09:03:19;49.83;;;17.63;;
2784;SDS011;57944;48.722;9.316;2023-03-01T09:05:49;25.47;;;16.43;;
2784;SDS011;57944;48.722;9.316;2023-03-01T09:08:19;29.23;;;16.47;;
2784;SDS011;57944;48.722;9.316;2023-03-01T09:10:49;27.77;;;15.63;;
2784;SDS011;57944;48.722;9.316;2023-03-01T09:13:19;22.10;;;15.20;;
2784;SDS011;57944;48.722;9.316;2023-03-01T09:15:51;20.60;;;13.63;;
2784;SDS011;57944;48.722;9.316;2023-03-01T09:18:23;26.03;;;16.90;;
2784;SDS011;57944;48.722;9.316;2023-03-01T09:21:00;28.70;;;18.00;;
2784;SDS011;57944;48.722;9.316;2023-03-01T09:23:33;31.27;;;18.00;;
2784;SDS011;57944;48.722;9.316;2023-03-01T09:26:06;32.70;;;17.03;;
2784;SDS011;57944;48.722;9.316;2023-03-01T09:28:37;27.23;;;17.20;;
2784;SDS011;57944;48.722;9.316;2023-03-01T09:31:08;24.23;;;15.37;;
2784;SDS011;57944;48.722;9.316;2023-03-01T09:33:42;30.60;;;18.50;;
2784;SDS011;57944;48.722;9.316;2023-03-01T09:36:16;32.73;;;14.60;;
2784;SDS011;57944;48.722;9.316;2023-03-01T09:38:51;24.23;;;16.97;;
2784;SDS011;57944;48.722;9.316;2023-03-01T09:41:26;28.73;;;16.43;;
2784;SDS011;57944;48.722;9.316;2023-03-01T09:44:22;30.83;;;17.13;;
2784;SDS011;57944;48.722;9.316;2023-03-01T09:47:02;24.63;;;14.90;;
2784;SDS011;57944;48.722;9.316;2023-03-01T09:49:36;23.77;;;16.47;;
2784;SDS011;57944;48.722;9.316;2023-03-01T09:52:19;29.30;;;17.10;;
2784;SDS011;57944;48.722;9.316;2023-03-01T09:54:57;28.70;;;17.90;;
2784;SDS011;57944;48.722;9.316;2023-03-01T09:57:29;27.80;;;18.87;;
2784;SDS011;57944;48.722;9.316;2023-03-01T10:00:10;28.73;;;17.90;;
2784;SDS011;57944;48.722;9.316;2023-03-01T10:02:55;22.57;;;17.67;;
2784;SDS011;57944;48.722;9.316;2023-03-01T10:05:38;27.50;;;19.00;;
2784;SDS011;57944;48.722;9.316;2023-03-01T10:08:25;24.63;;;17.67;;
2784;SDS011;57944;48.722;9.316;2023-03-01T10:11:03;26.90;;;17.70;;
2784;SDS011;57944;48.722;9.316;2023-03-01T10:13:45;28.13;;;16.20;;
2784;SDS011;57944;48.722;9.316;2023-03-01T10:16:24;26.53;;;17.60;;
2784;SDS011;57944;48.722;9.316;2023-03-01T10:19:03;30.77;;;18.10;;
2784;SDS011;57944;48.722;9.316;2023-03-01T10:21:41;25.07;;;18.90;;
2784;SDS011;57944;48.722;9.316;2023-03-01T10:24:16;27.20;;;19.43;;
2784;SDS011;57944;48.722;9.316;2023-03-01T10:26:52;31.50;;;18.80;;
2784;SDS011;57944;48.722;9.316;2023-03-01T10:29:27;32.83;;;20.80;;
2784;SDS011;57944;48.722;9.316;2023-03-01T10:32:06;25.73;;;17.90;;
2784;SDS011;57944;48.722;9.316;2023-03-01T10:34:39;30.30;;;19.07;;
2784;SDS011;57944;48.722;9.316;2023-03-01T10:37:14;25.53;;;17.80;;
2784;SDS011;57944;48.722;9.316;2023-03-01T10:39:57;26.33;;;16.97;;
2784;SDS011;57944;48.722;9.316;2023-03-01T10:42:35;31.00;;;18.83;;
2784;SDS011;57944;48.722;9.316;2023-03-01T10:45:15;24.07;;;16.03;;
2784;SDS011;57944;48.722;9.316;2023-03-01T10:48:08;27.53;;;17.73;;
2784;SDS011;57944;48.722;9.316;2023-03-01T10:50:43;22.87;;;16.07;;
2784;SDS011;57944;48.722;9.316;2023-03-01T10:53:22;31.47;;;17.47;;
2784;SDS011;57944;48.722;9.316;2023-03-01T10:55:57;29.23;;;18.10;;
2784;SDS011;57944;48.722;9.316;2023-03-01T10:58:31;21.87;;;14.07;;
2784;SDS011;57944;48.722;9.316;2023-03-01T11:01:04;26.40;;;18.77;;
2784;SDS011;57944;48.722;9.316;2023-03-01T11:04:03;27.73;;;17.73;;
2784;SDS011;57944;48.722;9.316;2023-03-01T11:06:41;27.40;;;18.30;;
2784;SDS011;57944;48.722;9.316;2023-03-01T11:09:18;27.37;;;16.93;;
2784;SDS011;57944;48.722;9.316;2023-03-01T11:11:54;23.37;;;17.53;;
2784;SDS011;57944;48.722;9.316;2023-03-01T11:14:26;25.53;;;16.90;;
2784;SDS011;57944;48.722;9.316;2023-03-01T11:17:03;26.20;;;18.10;;
2784;SDS011;57944;48.722;9.316;2023-03-01T11:19:35;29.40;;;17.20;;
2784;SDS011;57944;48.722;9.316;2023-03-01T11:22:05;24.83;;;15.70;;
2784;SDS011;57944;48.722;9.316;2023-03-01T11:24:48;26.13;;;16.60;;
2784;SDS011;57944;48.722;9.316;2023-03-01T11:27:36;26.40;;;17.67;;
2784;SDS011;57944;48.722;9.316;2023-03-01T11:30:15;28.20;;;17.10;;
2784;SDS011;57944;48.722;9.316;2023-03-01T11:32:53;25.37;;;15.60;;
2784;SDS011;57944;48.722;9.316;2023-03-01T11:35:34;23.93;;;15.50;;
2784;SDS011;57944;48.722;9.316;2023-03-01T11:38:15;27.60;;;18.70;;
2784;SDS011;57944;48.722;9.316;2023-03-01T11:40:56;28.50;;;17.53;;
2784;SDS011;57944;48.722;9.316;2023-03-01T11:43:35;29.67;;;18.00;;
2784;SDS011;57944;48.722;9.316;2023-03-01T11:52:33;24.77;;;15.90;;
2784;SDS011;57944;48.722;9.316;2023-03-01T11:55:19;30.40;;;16.80;;
2784;SDS011;57944;48.722;9.316;2023-03-01T12:01:12;23.80;;;15.43;;
2784;SDS011;57944;48.722;9.316;2023-03-01T12:07:17;25.00;;;14.20;;
2784;SDS011;57944;48.722;9.316;2023-03-01T12:12:56;21.80;;;14.93;;
2784;SDS011;57944;48.722;9.316;2023-03-01T12:15:48;24.17;;;15.63;;
2784;SDS011;57944;48.722;9.316;2023-03-01T12:19:02;23.93;;;13.37;;
2784;SDS011;57944;48.722;9.316;2023-03-01T12:22:06;26.97;;;15.57;;
2784;SDS011;57944;48.722;9.316;2023-03-01T12:31:10;21.67;;;13.93;;
2784;SDS011;57944;48.722;9.316;2023-03-01T12:34:22;21.47;;;12.80;;
2784;SDS011;57944;48.722;9.316;2023-03-01T12:37:29;26.97;;;14.10;;
2784;SDS011;57944;48.722;9.316;2023-03-01T12:40:23;23.70;;;12.83;;
2784;SDS011;57944;48.722;9.316;2023-03-01T12:43:08;22.03;;;14.47;;
2784;SDS011;57944;48.722;9.316;2023-03-01T12:46:01;26.30;;;15.57;;
2784;SDS011;57944;48.722;9.316;2023-03-01T12:48:54;23.93;;;14.60;;
2784;SDS011;57944;48.722;9.316;2023-03-01T12:51:37;21.67;;;13.20;;
2784;SDS011;57944;48.722;9.316;2023-03-01T12:54:11;22.43;;;14.13;;
2784;SDS011;57944;48.722;9.316;2023-03-01T12:56:47;23.27;;;14.43;;
2784;SDS011;57944;48.722;9.316;2023-03-01T12:59:19;26.43;;;15.83;;
2784;SDS011;57944;48.722;9.316;2023-03-01T13:02:04;27.13;;;15.80;;
2784;SDS011;57944;48.722;9.316;2023-03-01T13:04:54;16.03;;;10.63;;
2784;SDS011;57944;48.722;9.316;2023-03-01T13:07:50;22.27;;;13.70;;
2784;SDS011;57944;48.722;9.316;2023-03-01T13:10:31;29.07;;;14.03;;
2784;SDS011;57944;48.722;9.316;2023-03-01T13:13:13;20.00;;;12.77;;
2784;SDS011;57944;48.722;9.316;2023-03-01T13:15:50;25.17;;;12.97;;
2784;SDS011;57944;48.722;9.316;2023-03-01T13:18:29;25.93;;;14.80;;
2784;SDS011;57944;48.722;9.316;2023-03-01T13:21:02;24.60;;;14.83;;
2784;SDS011;57944;48.722;9.316;2023-03-01T13:23:34;24.80;;;14.07;;
2784;SDS011;57944;48.722;9.316;2023-03-01T13:26:13;16.97;;;11.13;;
2784;SDS011;57944;48.722;9.316;2023-03-01T13:34:42;22.50;;;13.67;;
2784;SDS011;57944;48.722;9.316;2023-03-01T13:37:22;21.20;;;14.57;;
2784;SDS011;57944;48.722;9.316;2023-03-01T13:40:01;18.70;;;11.67;;
2784;SDS011;57944;48.722;9.316;2023-03-01T13:42:57;27.20;;;14.63;;
2784;SDS011;57944;48.722;9.316;2023-03-01T13:45:59;24.40;;;12.13;;
2784;SDS011;57944;48.722;9.316;2023-03-01T13:48:37;20.40;;;11.20;;
2784;SDS011;57944;48.722;9.316;2023-03-01T13:51:11;21.03;;;13.23;;
2784;SDS011;57944;48.722;9.316;2023-03-01T13:53:42;23.33;;;14.20;;
2784;SDS011;57944;48.722;9.316;2023-03-01T13:56:17;22.43;;;13.87;;
2784;SDS011;57944;48.722;9.316;2023-03-01T13:58:53;15.97;;;10.13;;
2784;SDS011;57944;48.722;9.316;2023-03-01T14:01:30;17.87;;;11.43;;
2784;SDS011;57944;48.722;9.316;2023-03-01T14:04:14;24.00;;;13.73;;
2784;SDS011;57944;48.722;9.316;2023-03-01T14:06:53;25.10;;;12.63;;
2784;SDS011;57944;48.722;9.316;2023-03-01T14:09:39;26.63;;;14.50;;
2784;SDS011;57944;48.722;9.316;2023-03-01T14:12:16;24.70;;;13.97;;
2784;SDS011;57944;48.722;9.316;2023-03-01T14:15:15;19.40;;;11.93;;
2784;SDS011;57944;48.722;9.316;2023-03-01T14:17:55;16.77;;;12.03;;
2784;SDS011;57944;48.722;9.316;2023-03-01T14:20:38;23.77;;;12.60;;
2784;SDS011;57944;48.722;9.316;2023-03-01T14:23:18;23.43;;;13.83;;
2784;SDS011;57944;48.722;9.316;2023-03-01T14:25:54;24.90;;;12.57;;
2784;SDS011;57944;48.722;9.316;2023-03-01T14:28:27;21.30;;;11.33;;
2784;SDS011;57944;48.722;9.316;2023-03-01T14:31:00;20.20;;;14.30;;
2784;SDS011;57944;48.722;9.316;2023-03-01T14:33:32;24.27;;;14.63;;
2784;SDS011;57944;48.722;9.316;2023-03-01T14:36:10;19.27;;;13.07;;
2784;SDS011;57944;48.722;9.316;2023-03-01T14:38:45;24.87;;;10.33;;
2784;SDS011;57944;48.722;9.316;2023-03-01T14:41:18;20.50;;;10.97;;
2784;SDS011;57944;48.722;9.316;2023-03-01T14:43:52;20.30;;;12.30;;
2784;SDS011;57944;48.722;9.316;2023-03-01T14:46:28;21.50;;;12.60;;
2784;SDS011;57944;48.722;9.316;2023-03-01T14:49:04;30.67;;;13.33;;
2784;SDS011;57944;48.722;9.316;2023-03-01T14:51:42;22.37;;;13.70;;
2784;SDS011;57944;48.722;9.316;2023-03-01T14:54:23;20.73;;;12.63;;
2784;SDS011;57944;48.722;9.316;2023-03-01T14:56:58;24.63;;;14.23;;
2784;SDS011;57944;48.722;9.316;2023-03-01T14:59:29;25.23;;;15.80;;
2784;SDS011;57944;48.722;9.316;2023-03-01T15:02:03;23.27;;;13.90;;
2784;SDS011;57944;48.722;9.316;2023-03-01T15:04:33;20.90;;;13.50;;
2784;SDS011;57944;48.722;9.316;2023-03-01T15:07:04;32.20;;;15.20;;
2784;SDS011;57944;48.722;9.316;2023-03-01T15:09:36;23.63;;;13.07;;
2784;SDS011;57944;48.722;9.316;2023-03-01T15:18:01;25.60;;;14.17;;
2784;SDS011;57944;48.722;9.316;2023-03-01T15:20:41;23.97;;;13.53;;
2784;SDS011;57944;48.722;9.316;2023-03-01T15:23:19;27.80;;;14.30;;
2784;SDS011;57944;48.722;9.316;2023-03-01T15:25:55;26.07;;;14.73;;
2784;SDS011;57944;48.722;9.316;2023-03-01T15:28:28;22.17;;;13.37;;
2784;SDS011;57944;48.722;9.316;2023-03-01T15:31:18;24.10;;;13.80;;
2784;SDS011;57944;48.722;9.316;2023-03-01T15:33:51;18.50;;;12.20;;
2784;SDS011;57944;48.722;9.316;2023-03-01T15:36:38;23.43;;;14.10;;
2784;SDS011;57944;48.722;9.316;2023-03-01T15:39:29;22.60;;;14.37;;
2784;SDS011;57944;48.722;9.316;2023-03-01T15:42:10;21.63;;;13.33;;
2784;SDS011;57944;48.722;9.316;2023-03-01T15:44:43;21.77;;;13.27;;
2784;SDS011;57944;48.722;9.316;2023-03-01T15:47:25;19.93;;;12.63;;
2784;SDS011;57944;48.722;9.316;2023-03-01T15:49:58;18.57;;;11.70;;
2784;SDS011;57944;48.722;9.316;2023-03-01T15:52:32;21.90;;;13.97;;